createdAt,value
2022-11-03T00:01:42.393Z,1.10
2022-11-03T00:04:12.073Z,0.88
2022-11-03T00:06:39.684Z,1.23
2022-11-03T00:09:09.120Z,1.10
2022-11-03T00:11:38.518Z,1.30
2022-11-03T00:14:06.686Z,1.00
2022-11-03T00:16:34.131Z,1.17
2022-11-03T00:19:01.715Z,0.68
2022-11-03T00:21:29.097Z,1.25
2022-11-03T00:23:56.344Z,1.10
2022-11-03T00:26:26.080Z,1.23
2022-11-03T00:28:55.230Z,1.05
2022-11-03T00:31:24.262Z,1.15
2022-11-03T00:33:51.657Z,0.95
2022-11-03T00:36:21.493Z,1.10
2022-11-03T00:38:49.108Z,1.48
2022-11-03T00:41:17.036Z,0.90
2022-11-03T00:43:44.276Z,0.60
2022-11-03T00:46:11.114Z,1.10
2022-11-03T00:48:38.757Z,0.73
2022-11-03T00:51:14.645Z,0.90
2022-11-03T00:53:58.980Z,1.65
2022-11-03T00:56:38.024Z,1.02
2022-11-03T00:59:06.867Z,0.90
2022-11-03T01:01:46.413Z,1.63
2022-11-03T01:04:33.913Z,1.42
2022-11-03T01:07:01.735Z,1.17
2022-11-03T01:09:39.254Z,0.80
2022-11-03T01:12:08.324Z,1.13
2022-11-03T01:14:39.053Z,1.10
2022-11-03T01:17:11.159Z,1.48
2022-11-03T01:19:38.133Z,1.48
2022-11-03T01:22:09.499Z,1.20
2022-11-03T01:24:39.480Z,1.08
2022-11-03T01:27:06.436Z,1.37
2022-11-03T01:29:33.280Z,0.90
2022-11-03T01:32:00.501Z,1.38
2022-11-03T01:34:27.351Z,0.93
2022-11-03T01:36:54.262Z,1.20
2022-11-03T01:39:21.160Z,1.10
2022-11-03T01:41:51.311Z,1.13
2022-11-03T01:44:18.175Z,0.90
2022-11-03T01:46:54.942Z,0.70
2022-11-03T01:49:30.689Z,0.63
2022-11-03T01:52:07.545Z,0.63
2022-11-03T01:54:37.226Z,0.90
2022-11-03T01:57:10.834Z,1.15
2022-11-03T01:59:38.805Z,0.68
2022-11-03T02:02:06.087Z,0.98
2022-11-03T02:04:34.743Z,0.80
2022-11-03T02:07:07.476Z,1.30
2022-11-03T02:09:34.676Z,1.13
2022-11-03T02:12:07.713Z,1.10
2022-11-03T02:14:48.535Z,1.13
2022-11-03T02:17:18.484Z,0.90
2022-11-03T02:19:55.348Z,1.33
2022-11-03T02:23:04.358Z,0.85
2022-11-03T02:25:58.100Z,1.15
2022-11-03T02:28:34.079Z,0.75
2022-11-03T02:31:22.059Z,1.00
2022-11-03T02:33:59.759Z,0.73
2022-11-03T02:36:49.946Z,1.30
2022-11-03T02:39:22.845Z,1.10
2022-11-03T02:41:52.885Z,1.23
2022-11-03T02:44:20.880Z,0.93
2022-11-03T02:46:52.522Z,1.00
2022-11-03T02:49:19.415Z,1.05
2022-11-03T02:51:46.244Z,0.93
2022-11-03T02:54:22.002Z,0.85
2022-11-03T02:57:01.812Z,0.70
2022-11-03T02:59:43.182Z,0.85
2022-11-03T03:02:16.075Z,1.58
2022-11-03T03:04:51.346Z,0.70
2022-11-03T03:07:25.390Z,1.50
2022-11-03T03:10:01.076Z,1.07
2022-11-03T03:12:28.667Z,1.10
2022-11-03T03:14:58.529Z,1.27
2022-11-03T03:17:28.212Z,0.63
2022-11-03T03:20:05.948Z,0.82
2022-11-03T03:22:49.123Z,0.70
2022-11-03T03:25:57.519Z,0.75
2022-11-03T03:28:36.416Z,1.10
2022-11-03T03:31:07.796Z,1.50
2022-11-03T03:33:35.407Z,1.02
2022-11-03T03:36:04.847Z,1.23
2022-11-03T03:38:38.324Z,1.20
2022-11-03T03:41:10.886Z,1.25
2022-11-03T03:43:38.485Z,0.98
2022-11-03T03:46:10.616Z,0.90
2022-11-03T03:48:37.775Z,0.97
2022-11-03T03:51:06.748Z,0.80
2022-11-03T03:53:33.810Z,0.95
2022-11-03T03:56:00.767Z,1.65
2022-11-03T03:58:27.603Z,0.65
2022-11-03T04:00:54.460Z,1.50
2022-11-03T04:03:24.641Z,1.40
2022-11-03T04:05:54.166Z,1.08
2022-11-03T04:08:21.352Z,0.70
2022-11-03T04:11:06.648Z,1.02
2022-11-03T04:13:52.715Z,0.90
2022-11-03T04:16:38.196Z,0.85
2022-11-03T04:19:23.575Z,1.50
2022-11-03T04:22:09.212Z,1.17
2022-11-03T04:24:36.044Z,0.63
2022-11-03T04:27:26.769Z,1.07
2022-11-03T04:29:57.908Z,1.08
2022-11-03T04:32:25.720Z,1.35
2022-11-03T04:34:52.940Z,0.88
2022-11-03T04:37:19.877Z,0.90
2022-11-03T04:39:46.986Z,1.00
2022-11-03T04:42:22.095Z,0.82
2022-11-03T04:44:49.915Z,1.15
2022-11-03T04:47:18.227Z,1.80
2022-11-03T04:49:47.416Z,1.00
2022-11-03T04:52:20.137Z,0.80
2022-11-03T04:54:50.138Z,1.55
2022-11-03T04:57:18.473Z,1.20
2022-11-03T04:59:48.250Z,1.02
2022-11-03T05:02:18.668Z,0.80
2022-11-03T05:04:45.709Z,1.20
2022-11-03T05:07:35.851Z,1.55
2022-11-03T05:10:04.799Z,1.17
2022-11-03T05:12:31.668Z,1.20
2022-11-03T05:14:59.158Z,1.25
2022-11-03T05:17:28.408Z,1.03
2022-11-03T05:20:00.376Z,0.80
2022-11-03T05:22:34.345Z,1.02
2022-11-03T05:25:03.886Z,0.88
2022-11-03T05:27:30.835Z,1.00
2022-11-03T05:30:01.100Z,0.77
2022-11-03T05:32:34.562Z,0.75
2022-11-03T05:35:01.644Z,0.73
2022-11-03T05:37:34.146Z,0.90
2022-11-03T05:40:05.194Z,1.00
2022-11-03T05:42:34.676Z,1.17
2022-11-03T05:45:08.363Z,1.00
2022-11-03T05:47:39.201Z,1.17
2022-11-03T05:50:19.627Z,0.80
2022-11-03T05:52:48.494Z,0.88
2022-11-03T05:55:26.369Z,1.47
2022-11-03T05:57:56.429Z,1.20
2022-11-03T06:00:29.284Z,1.40
2022-11-03T06:02:56.960Z,1.05
2022-11-03T06:05:25.470Z,0.95
2022-11-03T06:07:58.051Z,0.90
2022-11-03T06:10:49.024Z,1.65
2022-11-03T06:13:22.709Z,1.55
2022-11-03T06:15:53.662Z,0.90
2022-11-03T06:18:23.115Z,1.08
2022-11-03T06:20:57.544Z,0.70
2022-11-03T06:23:24.459Z,1.00
2022-11-03T06:25:54.183Z,1.20
2022-11-03T06:28:32.533Z,1.27
2022-11-03T06:31:00.014Z,1.30
2022-11-03T06:33:35.054Z,1.07
2022-11-03T06:36:16.343Z,1.75
2022-11-03T06:38:49.290Z,1.05
2022-11-03T06:41:26.490Z,0.90
2022-11-03T06:43:53.432Z,1.15
2022-11-03T06:46:26.694Z,1.10
2022-11-03T06:48:56.128Z,1.20
2022-11-03T06:51:26.967Z,1.25
2022-11-03T06:53:58.062Z,1.00
2022-11-03T06:56:28.423Z,1.20
2022-11-03T06:58:57.749Z,0.90
2022-11-03T07:01:32.762Z,0.90
2022-11-03T07:04:13.333Z,1.65
2022-11-03T07:06:41.081Z,1.60
2022-11-03T07:09:14.709Z,0.95
2022-11-03T07:11:46.412Z,0.90
2022-11-03T07:14:26.711Z,0.85
2022-11-03T07:16:56.468Z,1.90
2022-11-03T07:19:40.524Z,1.13
2022-11-03T07:22:13.451Z,0.88
2022-11-03T07:24:42.315Z,1.10
2022-11-03T07:27:21.322Z,1.30
2022-11-03T07:29:50.886Z,1.35
2022-11-03T07:32:22.861Z,1.50
2022-11-03T07:34:53.050Z,1.13
2022-11-03T07:37:22.898Z,0.77
2022-11-03T07:39:51.489Z,1.77
2022-11-03T07:42:22.033Z,1.20
2022-11-03T07:44:50.137Z,1.00
2022-11-03T07:47:21.554Z,0.98
2022-11-03T07:49:49.124Z,0.90
2022-11-03T07:52:20.154Z,1.20
2022-11-03T07:54:47.236Z,1.10
2022-11-03T07:57:22.966Z,1.55
2022-11-03T07:59:57.755Z,1.23
2022-11-03T08:02:32.023Z,1.13
2022-11-03T08:04:59.827Z,1.00
2022-11-03T08:07:28.290Z,1.20
2022-11-03T08:09:55.711Z,1.05
2022-11-03T08:12:23.052Z,1.00
2022-11-03T08:14:49.884Z,1.07
2022-11-03T08:17:16.951Z,1.10
2022-11-03T08:19:43.915Z,1.15
2022-11-03T08:22:10.825Z,1.23
2022-11-03T08:24:37.936Z,1.05
2022-11-03T08:27:05.290Z,1.30
2022-11-03T08:29:32.585Z,1.27
2022-11-03T08:31:59.710Z,1.00
2022-11-03T08:34:26.775Z,1.00
2022-11-03T08:36:53.923Z,1.10
2022-11-03T08:39:20.819Z,1.30
2022-11-03T08:41:47.835Z,1.13
2022-11-03T08:44:14.978Z,1.63
2022-11-03T08:46:41.850Z,0.93
2022-11-03T08:49:08.752Z,1.10
2022-11-03T08:51:37.922Z,2.13
2022-11-03T08:54:08.425Z,1.35
2022-11-03T08:56:35.304Z,1.60
2022-11-03T08:59:02.209Z,1.20
2022-11-03T09:01:28.985Z,1.50
2022-11-03T09:03:56.061Z,1.17
2022-11-03T09:06:22.936Z,0.80
2022-11-03T09:11:36.759Z,1.65
2022-11-03T09:14:04.082Z,1.40
2022-11-03T09:16:30.988Z,0.80
2022-11-03T09:18:58.047Z,0.90
2022-11-03T09:21:24.959Z,1.48
2022-11-03T09:23:51.952Z,1.30
2022-11-03T09:26:19.485Z,1.15
2022-11-03T09:28:46.639Z,1.33
2022-11-03T09:31:13.774Z,0.90
2022-11-03T09:33:40.811Z,1.05
2022-11-03T09:36:08.035Z,1.15
2022-11-03T09:38:34.932Z,0.90
2022-11-03T09:41:09.615Z,1.43
2022-11-03T09:43:48.570Z,1.80
2022-11-03T09:46:17.238Z,1.10
2022-11-03T09:48:44.374Z,1.38
2022-11-03T09:51:17.535Z,1.33
2022-11-03T09:53:44.587Z,1.00
2022-11-03T09:56:11.600Z,1.27
2022-11-03T09:58:38.640Z,1.35
2022-11-03T10:01:06.246Z,1.23
2022-11-03T10:03:33.476Z,2.00
2022-11-03T10:06:00.414Z,1.83
2022-11-03T10:08:30.774Z,0.88
2022-11-03T10:10:59.009Z,1.10
2022-11-03T10:13:36.432Z,0.82
2022-11-03T10:16:06.420Z,1.08
2022-11-03T10:18:34.753Z,0.90
2022-11-03T10:21:07.419Z,1.08
2022-11-03T10:23:34.653Z,0.93
2022-11-03T10:26:19.817Z,1.10
2022-11-03T10:29:11.040Z,1.20
2022-11-03T10:31:42.033Z,1.10
2022-11-03T10:34:27.970Z,1.23
2022-11-03T10:37:18.355Z,0.98
2022-11-03T10:39:46.210Z,0.90
2022-11-03T10:42:24.763Z,1.25
2022-11-03T10:45:09.844Z,1.20
2022-11-03T10:47:36.761Z,1.25
2022-11-03T10:50:27.883Z,0.90
2022-11-03T10:52:55.288Z,1.20
2022-11-03T10:55:25.291Z,1.25
2022-11-03T10:57:56.750Z,0.80
2022-11-03T11:00:24.570Z,0.90
2022-11-03T11:02:58.825Z,1.20
2022-11-03T11:05:25.790Z,1.08
2022-11-03T11:07:54.218Z,0.90
2022-11-03T11:10:29.808Z,0.90
2022-11-03T11:13:26.856Z,1.05
2022-11-03T11:15:57.123Z,1.10
2022-11-03T11:18:30.162Z,1.10
2022-11-03T11:21:21.453Z,1.10
2022-11-03T11:23:49.691Z,0.90
2022-11-03T11:26:37.538Z,1.08
2022-11-03T11:29:10.261Z,1.00
2022-11-03T11:31:41.644Z,0.98
2022-11-03T11:34:20.511Z,1.15
2022-11-03T11:37:08.153Z,1.17
2022-11-03T11:39:44.387Z,0.85
2022-11-03T11:42:21.328Z,1.10
2022-11-03T11:44:51.686Z,1.33
2022-11-03T11:47:43.906Z,0.90
2022-11-03T11:50:17.688Z,0.67
2022-11-03T11:53:01.323Z,0.85
2022-11-03T11:55:40.244Z,0.98
2022-11-03T11:58:17.634Z,0.95
2022-11-03T12:01:05.749Z,1.25
2022-11-03T12:03:37.678Z,1.13
2022-11-03T12:06:05.409Z,1.30
2022-11-03T12:08:33.161Z,0.90
2022-11-03T12:11:06.075Z,1.08
2022-11-03T12:13:36.026Z,0.82
2022-11-03T12:16:03.018Z,0.83
2022-11-03T12:18:31.971Z,0.77
2022-11-03T12:21:04.367Z,0.70
2022-11-03T12:23:38.066Z,1.00
2022-11-03T12:26:06.071Z,0.90
2022-11-03T12:28:37.898Z,1.10
2022-11-03T12:31:05.019Z,0.82
2022-11-03T12:33:32.227Z,0.70
2022-11-03T12:35:59.264Z,0.50
2022-11-03T12:38:26.286Z,1.10
2022-11-03T12:40:53.899Z,0.60
2022-11-03T12:43:20.734Z,0.77
2022-11-03T12:45:47.602Z,0.65
2022-11-03T12:48:14.539Z,0.63
2022-11-03T12:50:42.285Z,0.60
2022-11-03T12:53:09.697Z,0.60
2022-11-03T12:55:39.293Z,0.73
2022-11-03T12:58:09.308Z,1.00
2022-11-03T13:00:36.472Z,0.80
2022-11-03T13:03:03.303Z,0.95
2022-11-03T13:05:30.717Z,1.13
2022-11-03T13:07:57.696Z,0.68
2022-11-03T13:10:24.587Z,1.10
2022-11-03T13:12:51.652Z,0.70
2022-11-03T13:15:18.537Z,0.82
2022-11-03T13:18:11.658Z,0.60
2022-11-03T13:20:33.455Z,1.20
2022-11-03T13:23:00.373Z,0.80
2022-11-03T13:25:28.854Z,0.80
2022-11-03T13:27:56.332Z,0.73
2022-11-03T13:30:27.683Z,0.70
2022-11-03T13:32:54.715Z,1.02
2022-11-03T13:35:21.549Z,0.73
2022-11-03T13:37:48.559Z,0.60
2022-11-03T13:40:50.295Z,0.80
2022-11-03T13:43:03.422Z,1.23
2022-11-03T13:45:30.399Z,0.65
2022-11-03T13:49:08.727Z,0.63
2022-11-03T13:50:45.911Z,0.80
2022-11-03T13:56:05.226Z,0.70
2022-11-03T14:01:23.127Z,0.90
2022-11-03T14:06:37.386Z,0.70
2022-11-03T14:09:04.288Z,1.00
2022-11-03T14:11:49.755Z,1.00
2022-11-03T14:14:16.785Z,0.52
2022-11-03T14:16:43.717Z,0.80
2022-11-03T14:19:10.598Z,1.00
2022-11-03T14:21:42.980Z,0.63
2022-11-03T14:24:09.915Z,1.20
2022-11-03T14:26:42.677Z,0.88
2022-11-03T14:29:11.053Z,0.90
2022-11-03T14:31:38.030Z,0.65
2022-11-03T14:34:05.035Z,0.80
2022-11-03T14:36:31.917Z,0.80
2022-11-03T14:38:58.975Z,1.17
2022-11-03T14:41:44.453Z,1.20
2022-11-03T14:44:11.487Z,0.90
2022-11-03T14:46:38.766Z,0.90
2022-11-03T14:49:05.739Z,0.63
2022-11-03T14:51:32.767Z,1.35
2022-11-03T14:53:59.600Z,1.35
2022-11-03T14:56:26.470Z,0.90
2022-11-03T14:58:53.341Z,1.10
2022-11-03T15:01:21.185Z,0.88
2022-11-03T15:03:48.602Z,1.27
2022-11-03T15:06:15.483Z,1.00
2022-11-03T15:08:42.629Z,1.20
2022-11-03T15:11:10.662Z,1.07
2022-11-03T15:13:43.982Z,1.27
2022-11-03T15:16:14.081Z,0.93
2022-11-03T15:18:41.918Z,1.10
2022-11-03T15:21:08.734Z,0.95
2022-11-03T15:26:22.600Z,1.00
2022-11-03T15:28:49.594Z,1.33
2022-11-03T15:31:16.654Z,1.67
2022-11-03T15:33:43.538Z,1.15
2022-11-03T15:36:10.798Z,1.23
2022-11-03T15:38:37.819Z,1.42
2022-11-03T15:41:17.307Z,1.50
2022-11-03T15:43:46.175Z,1.30
2022-11-03T15:46:14.146Z,1.08
2022-11-03T15:48:41.524Z,1.17
2022-11-03T15:51:08.590Z,1.80
2022-11-03T15:53:35.560Z,1.80
2022-11-03T15:56:02.871Z,1.55
2022-11-03T15:58:34.026Z,1.17
2022-11-03T16:01:03.037Z,1.20
2022-11-03T16:03:30.892Z,1.10
2022-11-03T16:05:57.968Z,1.25
2022-11-03T16:08:24.941Z,1.00
2022-11-03T16:10:57.333Z,1.00
2022-11-03T16:13:25.425Z,1.37
2022-11-03T16:15:54.726Z,1.67
2022-11-03T16:18:21.847Z,0.95
2022-11-03T16:20:48.962Z,1.05
2022-11-03T16:23:15.940Z,1.20
2022-11-03T16:25:43.614Z,1.10
2022-11-03T16:28:11.224Z,1.20
2022-11-03T16:30:38.873Z,1.27
2022-11-03T16:33:06.333Z,1.42
2022-11-03T16:35:33.902Z,1.20
2022-11-03T16:38:01.264Z,1.53
2022-11-03T16:40:28.578Z,1.15
2022-11-03T16:42:55.659Z,1.42
2022-11-03T16:45:26.683Z,1.33
2022-11-03T16:47:56.282Z,1.58
2022-11-03T16:50:23.514Z,1.47
2022-11-03T16:52:51.038Z,1.73
2022-11-03T16:55:19.632Z,1.73
2022-11-03T16:57:47.283Z,1.65
2022-11-03T17:00:19.652Z,2.00
2022-11-03T17:02:47.708Z,1.90
2022-11-03T17:05:16.901Z,1.77
2022-11-03T17:07:45.439Z,1.33
2022-11-03T17:10:15.771Z,1.60
2022-11-03T17:12:42.795Z,1.38
2022-11-03T17:15:10.344Z,1.40
2022-11-03T17:17:37.945Z,1.77
2022-11-03T17:20:06.444Z,1.63
2022-11-03T17:22:33.515Z,1.55
2022-11-03T17:25:01.843Z,1.33
2022-11-03T17:27:35.898Z,1.50
2022-11-03T17:30:07.306Z,1.50
2022-11-03T17:32:40.634Z,1.83
2022-11-03T17:35:22.588Z,1.80
2022-11-03T17:37:51.025Z,2.22
2022-11-03T17:40:21.701Z,1.80
2022-11-03T17:42:50.047Z,2.58
2022-11-03T17:45:19.998Z,2.38
2022-11-03T17:47:47.610Z,2.03
2022-11-03T17:50:19.272Z,2.08
2022-11-03T17:52:47.574Z,2.17
2022-11-03T17:55:30.330Z,2.50
2022-11-03T17:58:00.732Z,2.40
2022-11-03T18:00:28.596Z,2.20
2022-11-03T18:02:56.683Z,2.80
2022-11-03T18:05:28.950Z,2.63
2022-11-03T18:07:58.064Z,2.97
2022-11-03T18:10:31.960Z,2.55
2022-11-03T18:13:16.846Z,2.25
2022-11-03T18:15:51.224Z,2.95
2022-11-03T18:18:18.191Z,2.57
2022-11-03T18:20:53.372Z,2.85
2022-11-03T18:23:26.323Z,3.17
2022-11-03T18:25:54.186Z,3.10
2022-11-03T18:28:21.215Z,3.28
2022-11-03T18:30:51.600Z,3.07
2022-11-03T18:33:31.197Z,3.22
2022-11-03T18:35:59.555Z,3.08
2022-11-03T18:38:26.828Z,3.80
2022-11-03T18:40:54.481Z,3.60
2022-11-03T18:43:23.382Z,3.53
2022-11-03T18:45:50.915Z,3.80
2022-11-03T18:48:20.832Z,3.70
2022-11-03T18:50:49.820Z,3.80
2022-11-03T18:53:20.472Z,3.67
2022-11-03T18:55:47.650Z,3.87
2022-11-03T18:58:24.076Z,4.43
2022-11-03T19:00:54.713Z,4.45
2022-11-03T19:03:23.636Z,4.10
2022-11-03T19:05:52.933Z,3.90
2022-11-03T19:08:26.184Z,4.10
2022-11-03T19:10:54.451Z,3.65
2022-11-03T19:13:29.086Z,4.63
2022-11-03T19:16:01.732Z,4.40
2022-11-03T19:18:30.348Z,4.10
2022-11-03T19:20:57.876Z,4.07
2022-11-03T19:23:24.785Z,3.97
2022-11-03T19:26:00.113Z,4.35
2022-11-03T19:28:30.132Z,4.80
2022-11-03T19:30:58.224Z,4.45
2022-11-03T19:33:28.312Z,4.13
2022-11-03T19:35:55.930Z,4.25
2022-11-03T19:38:22.923Z,4.50
2022-11-03T19:41:08.362Z,3.80
2022-11-03T19:43:35.350Z,4.22
2022-11-03T19:46:03.113Z,4.50
2022-11-03T19:48:33.614Z,4.32
2022-11-03T19:51:00.677Z,4.13
2022-11-03T19:53:29.569Z,4.00
2022-11-03T19:55:57.130Z,3.28
2022-11-03T19:58:27.146Z,4.27
2022-11-03T20:00:54.836Z,4.15
2022-11-03T20:03:22.755Z,3.50
2022-11-03T20:05:53.696Z,3.33
2022-11-03T20:08:23.714Z,3.42
2022-11-03T20:10:51.015Z,3.43
2022-11-03T20:13:26.886Z,3.60
2022-11-03T20:16:00.658Z,3.35
2022-11-03T20:18:28.594Z,3.00
2022-11-03T20:20:56.035Z,3.42
2022-11-03T20:23:27.191Z,3.57
2022-11-03T20:25:54.741Z,4.05
2022-11-03T20:28:25.344Z,3.33
2022-11-03T20:30:53.385Z,3.20
2022-11-03T20:33:22.521Z,3.08
2022-11-03T20:35:50.391Z,3.50
2022-11-03T20:38:19.652Z,3.58
2022-11-03T20:40:48.378Z,3.40
2022-11-03T20:43:28.462Z,3.28
2022-11-03T20:45:56.153Z,3.15
2022-11-03T20:48:23.227Z,3.57
2022-11-03T20:50:51.279Z,3.30
2022-11-03T20:53:21.747Z,3.70
2022-11-03T20:55:49.049Z,3.80
2022-11-03T20:58:18.032Z,3.63
2022-11-03T21:00:46.571Z,3.83
2022-11-03T21:03:31.461Z,4.40
2022-11-03T21:06:03.893Z,4.53
2022-11-03T21:08:30.852Z,4.13
2022-11-03T21:11:17.956Z,4.90
2022-11-03T21:13:45.038Z,4.67
2022-11-03T21:16:30.483Z,4.43
2022-11-03T21:19:16.223Z,4.70
2022-11-03T21:21:43.177Z,5.53
2022-11-03T21:24:12.219Z,4.90
2022-11-03T21:26:42.267Z,4.90
2022-11-03T21:29:09.244Z,5.22
2022-11-03T21:31:36.211Z,4.85
2022-11-03T21:34:03.199Z,4.22
2022-11-03T21:36:30.767Z,4.20
2022-11-03T21:38:57.724Z,4.00
2022-11-03T21:41:43.157Z,3.83
2022-11-03T21:44:16.148Z,3.78
2022-11-03T21:46:44.654Z,3.88
2022-11-03T21:49:30.142Z,3.60
2022-11-03T21:51:57.358Z,3.07
2022-11-03T21:54:24.346Z,2.45
2022-11-03T21:56:51.610Z,2.58
2022-11-03T21:59:18.666Z,2.47
2022-11-03T22:01:45.514Z,1.70
2022-11-03T22:04:12.587Z,1.20
2022-11-03T22:06:39.607Z,1.23
2022-11-03T22:09:06.590Z,1.20
2022-11-03T22:11:33.918Z,0.93
2022-11-03T22:14:01.940Z,0.95
2022-11-03T22:16:38.358Z,0.50
2022-11-03T22:19:25.195Z,0.63
2022-11-03T22:22:11.056Z,0.90
2022-11-03T22:24:57.199Z,0.80
2022-11-03T22:27:25.224Z,0.90
2022-11-03T22:30:11.063Z,0.90
2022-11-03T22:32:38.369Z,1.30
2022-11-03T22:35:25.048Z,1.20
2022-11-03T22:38:41.083Z,1.52
2022-11-03T22:41:26.656Z,1.50
2022-11-03T22:44:12.310Z,1.20
2022-11-03T22:46:39.304Z,1.63
2022-11-03T22:49:06.263Z,1.40
2022-11-03T22:51:33.009Z,1.65
2022-11-03T22:54:11.971Z,1.58
2022-11-03T22:56:40.136Z,1.07
2022-11-03T22:59:07.860Z,1.00
2022-11-03T23:01:35.951Z,1.10
2022-11-03T23:04:05.129Z,0.82
2022-11-03T23:06:36.110Z,0.90
2022-11-03T23:09:03.833Z,0.83
2022-11-03T23:11:32.916Z,0.68
2022-11-03T23:14:02.321Z,0.70
2022-11-03T23:16:34.257Z,0.80
2022-11-03T23:19:20.176Z,0.90
2022-11-03T23:21:50.200Z,0.80
2022-11-03T23:24:40.467Z,0.80
2022-11-03T23:27:11.068Z,0.82
2022-11-03T23:29:38.157Z,0.80
2022-11-03T23:32:05.619Z,1.15
2022-11-03T23:34:32.573Z,0.70
2022-11-03T23:36:59.887Z,1.10
2022-11-03T23:39:26.638Z,1.25
2022-11-03T23:41:53.533Z,0.75
2022-11-03T23:44:20.650Z,0.77
2022-11-03T23:47:05.898Z,0.53
2022-11-03T23:49:32.899Z,0.70
2022-11-03T23:52:02.179Z,0.73
2022-11-03T23:54:29.176Z,0.65
2022-11-03T23:57:15.016Z,1.30
2022-11-03T23:59:41.941Z,0.80
